createdAt,value
2022-11-02T00:02:01.983Z,4.57
2022-11-02T00:04:50.578Z,4.43
2022-11-02T00:07:39.271Z,4.55
2022-11-02T00:10:30.092Z,4.35
2022-11-02T00:13:18.623Z,3.40
2022-11-02T00:16:10.736Z,4.20
2022-11-02T00:19:01.705Z,4.50
2022-11-02T00:21:50.154Z,4.20
2022-11-02T00:24:38.619Z,3.97
2022-11-02T00:27:27.096Z,3.85
2022-11-02T00:30:15.802Z,4.13
2022-11-02T00:33:04.447Z,3.40
2022-11-02T00:35:54.776Z,3.83
2022-11-02T00:38:43.207Z,3.55
2022-11-02T00:41:31.960Z,3.58
2022-11-02T00:44:20.482Z,3.25
2022-11-02T00:47:08.899Z,3.78
2022-11-02T00:49:57.428Z,3.53
2022-11-02T00:52:47.223Z,3.15
2022-11-02T00:55:35.622Z,3.45
2022-11-02T00:58:24.198Z,3.45
2022-11-02T01:01:12.674Z,3.55
2022-11-02T01:04:01.255Z,3.15
2022-11-02T01:06:49.681Z,3.17
2022-11-02T01:09:39.614Z,3.40
2022-11-02T01:12:28.196Z,2.67
2022-11-02T01:15:16.813Z,3.53
2022-11-02T01:18:05.978Z,3.30
2022-11-02T01:20:57.897Z,2.40
2022-11-02T01:23:46.458Z,3.00
2022-11-02T01:26:36.244Z,2.92
2022-11-02T01:29:24.720Z,2.85
2022-11-02T01:32:13.153Z,2.70
2022-11-02T01:35:02.794Z,2.75
2022-11-02T01:37:51.424Z,2.53
2022-11-02T01:40:40.738Z,2.42
2022-11-02T01:43:32.209Z,2.83
2022-11-02T01:46:22.432Z,2.60
2022-11-02T01:49:12.865Z,2.95
2022-11-02T01:52:06.031Z,2.55
2022-11-02T01:54:56.859Z,2.83
2022-11-02T01:57:48.645Z,1.90
2022-11-02T02:00:38.742Z,2.28
2022-11-02T02:03:27.456Z,2.97
2022-11-02T02:06:17.908Z,2.22
2022-11-02T02:09:07.140Z,2.03
2022-11-02T02:11:55.650Z,2.13
2022-11-02T02:14:44.357Z,2.60
2022-11-02T02:17:41.110Z,2.40
2022-11-02T02:20:43.621Z,2.38
2022-11-02T02:23:41.446Z,2.22
2022-11-02T02:27:01.252Z,2.42
2022-11-02T02:29:55.670Z,2.35
2022-11-02T02:32:48.672Z,2.63
2022-11-02T02:35:41.769Z,2.20
2022-11-02T02:38:33.453Z,2.17
2022-11-02T02:41:25.989Z,2.10
2022-11-02T02:44:18.736Z,1.80
2022-11-02T02:47:14.348Z,1.65
2022-11-02T02:50:07.657Z,1.83
2022-11-02T02:52:57.041Z,2.30
2022-11-02T02:55:48.509Z,2.25
2022-11-02T02:58:40.528Z,1.90
2022-11-02T03:01:29.926Z,2.13
2022-11-02T03:04:19.886Z,1.73
2022-11-02T03:07:09.067Z,2.35
2022-11-02T03:10:06.171Z,1.90
2022-11-02T03:12:58.955Z,2.05
2022-11-02T03:15:52.639Z,2.03
2022-11-02T03:18:49.187Z,1.30
2022-11-02T03:21:41.859Z,1.58
2022-11-02T03:24:35.721Z,1.52
2022-11-02T03:27:29.541Z,1.92
2022-11-02T03:30:20.333Z,1.38
2022-11-02T03:33:11.800Z,1.70
2022-11-02T03:36:05.817Z,2.00
2022-11-02T03:38:58.588Z,1.85
2022-11-02T03:41:49.237Z,1.30
2022-11-02T03:44:43.516Z,1.92
2022-11-02T03:47:35.212Z,1.73
2022-11-02T03:50:24.865Z,1.95
2022-11-02T03:53:16.290Z,1.60
2022-11-02T03:56:09.870Z,1.95
2022-11-02T03:58:58.832Z,1.35
2022-11-02T04:01:49.718Z,1.50
2022-11-02T04:04:49.321Z,1.33
2022-11-02T04:07:56.864Z,1.73
2022-11-02T04:11:05.885Z,1.38
2022-11-02T04:14:13.594Z,1.70
2022-11-02T04:17:19.960Z,1.90
2022-11-02T04:20:09.261Z,1.30
2022-11-02T04:23:15.167Z,1.48
2022-11-02T04:26:03.817Z,1.38
2022-11-02T04:28:52.307Z,1.23
2022-11-02T04:31:42.105Z,1.30
2022-11-02T04:34:29.579Z,1.40
2022-11-02T04:37:31.907Z,1.27
2022-11-02T04:40:20.392Z,1.45
2022-11-02T04:43:08.931Z,1.25
2022-11-02T04:45:59.730Z,1.58
2022-11-02T04:48:49.635Z,1.10
2022-11-02T04:51:40.222Z,1.15
2022-11-02T04:54:28.686Z,1.17
2022-11-02T04:57:17.185Z,1.27
2022-11-02T05:00:07.749Z,1.13
2022-11-02T05:02:56.218Z,1.17
2022-11-02T05:05:46.087Z,1.20
2022-11-02T05:08:34.618Z,1.23
2022-11-02T05:11:23.094Z,1.30
2022-11-02T05:14:11.594Z,1.10
2022-11-02T05:17:00.034Z,0.90
2022-11-02T05:19:48.480Z,0.73
2022-11-02T05:22:38.468Z,1.10
2022-11-02T05:25:26.921Z,1.10
2022-11-02T05:28:15.464Z,1.08
2022-11-02T05:31:04.841Z,4.80
2022-11-02T05:33:53.368Z,6.65
2022-11-02T05:36:41.809Z,7.38
2022-11-02T05:39:31.611Z,7.50
2022-11-02T05:42:20.171Z,6.15
2022-11-02T05:45:09.327Z,6.38
2022-11-02T05:48:01.440Z,7.32
2022-11-02T05:50:49.942Z,6.55
2022-11-02T05:53:38.560Z,5.55
2022-11-02T05:56:31.066Z,5.43
2022-11-02T05:59:19.580Z,5.38
2022-11-02T06:02:08.109Z,5.47
2022-11-02T06:04:56.662Z,5.65
2022-11-02T06:07:45.248Z,6.20
2022-11-02T06:10:33.718Z,5.43
2022-11-02T06:13:23.595Z,5.22
2022-11-02T06:16:18.721Z,5.72
2022-11-02T06:19:11.036Z,5.07
2022-11-02T06:21:59.518Z,5.28
2022-11-02T06:24:47.976Z,5.40
2022-11-02T06:27:37.782Z,5.45
2022-11-02T06:30:29.809Z,5.75
2022-11-02T06:33:19.261Z,4.82
2022-11-02T06:36:08.480Z,5.13
2022-11-02T06:38:56.948Z,5.00
2022-11-02T06:41:45.768Z,4.88
2022-11-02T06:44:34.318Z,4.45
2022-11-02T06:47:24.306Z,5.32
2022-11-02T06:50:12.708Z,4.70
2022-11-02T06:53:01.262Z,5.22
2022-11-02T06:55:53.702Z,5.07
2022-11-02T06:58:42.169Z,5.05
2022-11-02T07:01:30.823Z,4.70
2022-11-02T07:04:20.893Z,5.05
2022-11-02T07:07:09.426Z,4.47
2022-11-02T07:09:57.869Z,4.97
2022-11-02T07:12:46.497Z,4.38
2022-11-02T07:15:35.024Z,4.07
2022-11-02T07:18:23.851Z,4.85
2022-11-02T07:21:13.977Z,4.90
2022-11-02T07:24:02.635Z,4.63
2022-11-02T07:26:52.768Z,4.57
2022-11-02T07:29:41.403Z,4.03
2022-11-02T07:32:29.962Z,3.65
2022-11-02T07:35:19.082Z,3.83
2022-11-02T07:38:09.518Z,4.22
2022-11-02T07:40:58.346Z,3.40
2022-11-02T07:43:47.058Z,3.47
2022-11-02T07:46:35.674Z,3.10
2022-11-02T07:49:24.706Z,3.80
2022-11-02T07:52:13.692Z,3.30
2022-11-02T07:55:03.965Z,4.10
2022-11-02T07:57:55.997Z,3.85
2022-11-02T08:00:46.353Z,3.80
2022-11-02T08:03:34.863Z,3.33
2022-11-02T08:06:23.427Z,3.95
2022-11-02T08:09:12.451Z,3.63
2022-11-02T08:12:02.394Z,3.92
2022-11-02T08:14:50.787Z,3.03
2022-11-02T08:17:39.396Z,3.88
2022-11-02T08:20:27.935Z,3.70
2022-11-02T08:23:17.390Z,3.20
2022-11-02T08:26:06.015Z,3.60
2022-11-02T08:28:55.870Z,2.90
2022-11-02T08:31:46.464Z,3.55
2022-11-02T08:34:35.100Z,3.00
2022-11-02T08:37:23.653Z,2.63
2022-11-02T08:40:13.333Z,3.58
2022-11-02T08:43:04.032Z,2.70
2022-11-02T08:46:13.746Z,2.83
2022-11-02T08:49:02.540Z,2.90
2022-11-02T08:51:51.002Z,2.30
2022-11-02T08:54:39.464Z,2.35
2022-11-02T08:57:27.923Z,2.42
2022-11-02T09:00:17.182Z,2.53
2022-11-02T09:03:08.749Z,2.42
2022-11-02T09:06:01.489Z,1.67
2022-11-02T09:08:52.725Z,2.05
2022-11-02T09:11:45.040Z,1.88
2022-11-02T09:14:34.676Z,1.42
2022-11-02T09:17:23.317Z,1.70
2022-11-02T09:20:13.692Z,1.80
2022-11-02T09:23:02.467Z,1.70
2022-11-02T09:25:51.814Z,1.58
2022-11-02T09:28:40.557Z,1.42
2022-11-02T09:31:30.477Z,1.48
2022-11-02T09:34:19.498Z,0.90
2022-11-02T09:37:09.635Z,1.58
2022-11-02T09:39:58.306Z,1.17
2022-11-02T09:42:55.781Z,1.40
2022-11-02T09:45:53.618Z,1.30
2022-11-02T09:48:43.990Z,0.85
2022-11-02T09:51:36.247Z,1.02
2022-11-02T09:54:30.708Z,0.95
2022-11-02T09:57:23.730Z,0.75
2022-11-02T10:00:15.864Z,1.38
2022-11-02T10:03:17.318Z,0.70
2022-11-02T10:06:10.072Z,1.15
2022-11-02T10:09:03.166Z,1.00
2022-11-02T10:11:57.968Z,0.90
2022-11-02T10:14:54.973Z,0.73
2022-11-02T10:17:44.240Z,0.75
2022-11-02T10:20:40.249Z,0.98
2022-11-02T10:23:33.033Z,0.60
2022-11-02T10:26:24.987Z,0.85
2022-11-02T10:29:18.432Z,0.40
2022-11-02T10:32:07.418Z,0.80
2022-11-02T10:34:59.202Z,0.75
2022-11-02T10:38:14.568Z,1.02
2022-11-02T10:41:15.816Z,0.38
2022-11-02T10:44:23.211Z,0.70
2022-11-02T10:47:16.391Z,0.63
2022-11-02T10:50:17.224Z,0.47
2022-11-02T10:53:39.493Z,0.47
2022-11-02T10:56:25.313Z,0.70
2022-11-02T10:59:16.108Z,0.50
2022-11-02T11:02:16.640Z,0.63
2022-11-02T11:05:14.509Z,0.73
2022-11-02T11:08:04.286Z,1.15
2022-11-02T11:10:53.463Z,0.70
2022-11-02T11:16:57.072Z,0.30
2022-11-02T11:19:52.773Z,0.70
2022-11-02T11:22:42.197Z,0.65
2022-11-02T11:25:32.451Z,0.73
2022-11-02T11:28:27.036Z,0.52
2022-11-02T11:31:18.588Z,0.68
2022-11-02T11:34:07.857Z,1.10
2022-11-02T11:37:06.665Z,0.45
2022-11-02T11:39:58.418Z,1.05
2022-11-02T11:42:50.005Z,0.75
2022-11-02T11:45:40.157Z,0.80
2022-11-02T11:48:36.546Z,0.30
2022-11-02T11:51:33.424Z,0.60
2022-11-02T11:54:27.012Z,1.00
2022-11-02T11:57:26.119Z,1.13
2022-11-02T12:00:27.431Z,0.68
2022-11-02T12:03:16.380Z,1.20
2022-11-02T12:06:14.581Z,0.80
2022-11-02T12:09:08.755Z,0.55
2022-11-02T12:12:05.847Z,1.00
2022-11-02T12:15:07.044Z,0.70
2022-11-02T12:18:07.758Z,0.57
2022-11-02T12:21:04.718Z,0.52
2022-11-02T12:24:07.008Z,0.65
2022-11-02T12:27:09.652Z,0.57
2022-11-02T12:30:19.422Z,0.38
2022-11-02T12:33:18.366Z,0.40
2022-11-02T12:36:15.852Z,0.85
2022-11-02T12:39:09.136Z,1.00
2022-11-02T12:42:07.484Z,0.40
2022-11-02T12:45:07.628Z,0.70
2022-11-02T12:48:00.590Z,0.50
2022-11-02T12:50:56.781Z,0.30
2022-11-02T12:53:48.933Z,0.30
2022-11-02T12:56:45.859Z,0.60
2022-11-02T12:59:36.552Z,0.60
2022-11-02T13:02:28.852Z,0.50
2022-11-02T13:05:19.225Z,0.40
2022-11-02T13:08:13.741Z,0.55
2022-11-02T13:11:07.367Z,0.30
2022-11-02T13:13:58.343Z,0.50
2022-11-02T13:16:52.505Z,0.50
2022-11-02T13:19:43.962Z,0.63
2022-11-02T13:22:35.933Z,0.30
2022-11-02T13:25:32.577Z,0.65
2022-11-02T13:28:26.883Z,0.50
2022-11-02T13:31:19.953Z,0.60
2022-11-02T13:34:14.869Z,0.68
2022-11-02T13:37:11.934Z,0.50
2022-11-02T13:40:03.408Z,0.70
2022-11-02T13:43:16.937Z,0.60
2022-11-02T13:46:18.259Z,0.55
2022-11-02T13:49:08.170Z,0.57
2022-11-02T13:52:00.961Z,0.40
2022-11-02T13:54:52.417Z,0.60
2022-11-02T13:57:42.844Z,0.40
2022-11-02T14:00:33.793Z,0.45
2022-11-02T14:03:25.514Z,0.90
2022-11-02T14:06:15.555Z,0.65
2022-11-02T14:09:07.358Z,0.60
2022-11-02T14:12:14.687Z,0.22
2022-11-02T14:15:49.151Z,0.73
2022-11-02T14:18:38.196Z,0.70
2022-11-02T14:21:44.067Z,0.63
2022-11-02T14:24:57.084Z,0.68
2022-11-02T14:27:46.145Z,0.73
2022-11-02T14:30:45.733Z,0.40
2022-11-02T14:33:50.581Z,0.50
2022-11-02T14:36:50.559Z,0.32
2022-11-02T14:39:47.287Z,0.52
2022-11-02T14:42:49.027Z,0.60
2022-11-02T14:45:58.139Z,0.68
2022-11-02T14:48:49.344Z,0.40
2022-11-02T14:51:39.243Z,0.30
2022-11-02T14:54:28.702Z,0.40
2022-11-02T14:57:22.799Z,0.40
2022-11-02T15:00:22.327Z,0.40
2022-11-02T15:03:31.104Z,0.43
2022-11-02T15:06:26.688Z,0.50
2022-11-02T15:09:15.747Z,0.43
2022-11-02T15:12:26.002Z,0.50
2022-11-02T15:15:34.926Z,0.70
2022-11-02T15:18:26.081Z,0.32
2022-11-02T15:21:30.748Z,0.70
2022-11-02T15:24:21.830Z,0.47
2022-11-02T15:27:14.993Z,0.60
2022-11-02T15:30:04.589Z,0.55
2022-11-02T15:33:01.242Z,1.55
2022-11-02T15:35:53.892Z,1.00
2022-11-02T15:38:42.906Z,1.17
2022-11-02T15:41:40.245Z,1.00
2022-11-02T15:44:42.336Z,0.98
2022-11-02T15:47:37.683Z,1.15
2022-11-02T15:50:44.876Z,0.70
2022-11-02T15:53:41.795Z,0.93
2022-11-02T15:56:46.620Z,1.15
2022-11-02T15:59:54.227Z,0.68
2022-11-02T16:02:44.216Z,0.68
2022-11-02T16:05:35.408Z,0.82
2022-11-02T16:08:26.257Z,0.63
2022-11-02T16:11:19.827Z,1.00
2022-11-02T16:14:17.620Z,1.23
2022-11-02T16:17:06.493Z,0.98
2022-11-02T16:20:10.738Z,1.35
2022-11-02T16:23:02.219Z,0.85
2022-11-02T16:25:53.132Z,1.08
2022-11-02T16:28:42.136Z,0.82
2022-11-02T16:31:33.028Z,1.13
2022-11-02T16:34:23.749Z,0.63
2022-11-02T16:37:15.771Z,0.63
2022-11-02T16:40:07.063Z,0.73
2022-11-02T16:43:14.428Z,0.82
2022-11-02T16:46:06.748Z,2.83
2022-11-02T16:52:39.292Z,2.55
2022-11-02T16:59:04.337Z,6.28
2022-11-02T17:01:53.857Z,2.83
2022-11-02T17:04:44.428Z,2.60
2022-11-02T17:07:35.453Z,3.17
2022-11-02T17:10:28.098Z,1.98
2022-11-02T17:13:22.078Z,2.58
2022-11-02T17:16:14.198Z,1.60
2022-11-02T17:19:04.910Z,2.33
2022-11-02T17:22:08.077Z,2.60
2022-11-02T17:25:14.865Z,1.33
2022-11-02T17:28:27.480Z,1.90
2022-11-02T17:31:20.842Z,1.70
2022-11-02T17:34:12.829Z,1.70
2022-11-02T17:37:02.657Z,1.70
2022-11-02T17:39:51.708Z,0.90
2022-11-02T17:43:00.916Z,1.23
2022-11-02T17:45:55.606Z,1.60
2022-11-02T17:48:45.986Z,0.65
2022-11-02T17:51:34.549Z,1.45
2022-11-02T17:54:23.725Z,1.48
2022-11-02T17:57:13.387Z,0.77
2022-11-02T18:00:01.913Z,1.10
2022-11-02T18:02:51.728Z,0.93
2022-11-02T18:05:43.747Z,1.10
2022-11-02T18:08:55.249Z,1.20
2022-11-02T18:11:43.721Z,0.80
2022-11-02T18:14:32.165Z,0.70
2022-11-02T18:17:20.627Z,0.77
2022-11-02T18:20:10.575Z,1.00
2022-11-02T18:23:00.786Z,1.17
2022-11-02T18:25:50.983Z,2.72
2022-11-02T18:28:42.361Z,17.45
2022-11-02T18:31:30.897Z,28.13
2022-11-02T18:34:19.397Z,28.30
2022-11-02T18:37:10.611Z,30.60
2022-11-02T19:12:48.230Z,21.23
2022-11-02T19:15:42.398Z,22.13
2022-11-02T19:18:31.337Z,19.52
2022-11-02T19:21:19.851Z,20.38
2022-11-02T19:24:09.334Z,17.48
2022-11-02T19:26:57.851Z,17.52
2022-11-02T19:29:46.482Z,18.70
2022-11-02T19:32:36.289Z,14.40
2022-11-02T19:35:24.931Z,15.75
2022-11-02T19:38:13.386Z,16.17
2022-11-02T19:41:02.742Z,15.23
2022-11-02T19:43:52.083Z,15.52
2022-11-02T19:49:37.820Z,12.38
2022-11-02T19:52:26.367Z,13.32
2022-11-02T19:55:14.784Z,13.18
2022-11-02T19:58:03.460Z,12.10
2022-11-02T20:00:52.372Z,11.77
2022-11-02T20:03:41.213Z,12.15
2022-11-02T20:06:34.089Z,10.65
2022-11-02T20:09:22.583Z,11.45
2022-11-02T20:12:11.055Z,11.18
2022-11-02T20:14:59.623Z,9.38
2022-11-02T20:18:18.211Z,10.27
2022-11-02T20:21:04.333Z,10.77
2022-11-02T20:23:55.532Z,9.43
2022-11-02T20:26:44.028Z,9.27
2022-11-02T20:29:32.573Z,8.88
2022-11-02T20:32:23.346Z,8.98
2022-11-02T20:35:13.982Z,9.73
2022-11-02T20:38:02.882Z,7.75
2022-11-02T20:40:52.924Z,7.55
2022-11-02T20:43:45.906Z,7.28
2022-11-02T20:46:39.990Z,7.93
2022-11-02T20:49:49.404Z,7.60
2022-11-02T20:52:38.381Z,6.78
2022-11-02T20:55:27.270Z,7.60
2022-11-02T20:58:17.079Z,6.47
2022-11-02T21:01:05.686Z,6.47
2022-11-02T21:03:54.296Z,5.80
2022-11-02T21:06:42.856Z,6.13
2022-11-02T21:09:31.397Z,5.80
2022-11-02T21:12:37.673Z,6.25
2022-11-02T21:15:28.155Z,5.90
2022-11-02T21:18:17.183Z,5.13
2022-11-02T21:21:07.108Z,5.38
2022-11-02T21:23:57.020Z,5.25
2022-11-02T21:26:45.551Z,5.40
2022-11-02T21:29:34.192Z,4.97
2022-11-02T21:32:35.512Z,5.13
2022-11-02T21:35:24.205Z,4.80
2022-11-02T21:38:17.114Z,4.25
2022-11-02T21:41:07.310Z,4.80
2022-11-02T21:43:55.993Z,4.03
2022-11-02T21:46:44.527Z,4.72
2022-11-02T21:49:34.351Z,4.88
2022-11-02T21:52:22.785Z,3.50
2022-11-02T21:55:11.808Z,4.00
2022-11-02T21:58:00.163Z,3.53
2022-11-02T22:01:06.094Z,4.20
2022-11-02T22:03:54.665Z,3.53
2022-11-02T22:06:44.782Z,3.40
2022-11-02T22:09:33.520Z,3.20
2022-11-02T22:12:39.997Z,4.00
2022-11-02T22:15:28.448Z,3.72
2022-11-02T22:18:20.146Z,3.83
2022-11-02T22:21:08.645Z,3.70
2022-11-02T22:24:01.083Z,3.38
2022-11-02T22:26:51.300Z,3.45
2022-11-02T22:29:39.771Z,3.60
2022-11-02T22:32:28.270Z,4.05
2022-11-02T22:35:19.299Z,4.20
2022-11-02T22:38:25.537Z,3.10
2022-11-02T22:41:15.736Z,3.20
2022-11-02T22:44:06.258Z,2.85
2022-11-02T22:46:54.679Z,2.97
2022-11-02T22:49:43.203Z,3.03
2022-11-02T22:52:31.600Z,3.10
2022-11-02T22:55:20.175Z,2.72
2022-11-02T22:58:09.914Z,2.95
2022-11-02T23:00:58.682Z,2.40
2022-11-02T23:03:47.801Z,2.25
2022-11-02T23:06:36.680Z,2.30
2022-11-02T23:09:25.158Z,2.78
2022-11-02T23:12:13.757Z,2.17
2022-11-02T23:15:03.552Z,2.30
2022-11-02T23:17:52.016Z,2.20
2022-11-02T23:20:39.522Z,2.60
2022-11-02T23:23:45.502Z,2.83
2022-11-02T23:26:34.195Z,2.03
2022-11-02T23:29:40.360Z,2.33
2022-11-02T23:32:30.878Z,1.85
2022-11-02T23:35:37.136Z,2.03
2022-11-02T23:38:45.661Z,2.33
2022-11-02T23:41:35.617Z,2.22
2022-11-02T23:44:24.018Z,2.00
2022-11-02T23:47:14.191Z,1.80
2022-11-02T23:50:07.935Z,2.13
2022-11-02T23:53:13.867Z,2.15
2022-11-02T23:56:20.043Z,1.77
2022-11-02T23:59:08.496Z,1.75
